Warning: Javascript must be enabled to use all the features on this page!


Page Loading - Please Wait...

* We've detected you're using a mobile device. Find our Next Generation Station Page here.
Click to hideNews Bulletins

Peak Streamflow for the Nation

USGS 09063900 MISSOURI CREEK NEAR GOLD PARK, CO.

Eagle County, Colorado
Hydrologic Unit Code 14010003
Latitude  39°23'25", Longitude 106°28'10" NAD27
Drainage area 6.38  square miles
Gage datum 9,980 feet above NGVD29
Output formats
Table
Graph
Tab-separated file
peakfq (watstore) format
Reselect output format
Water
Year
Date Gage
Height
(feet)
Stream-
flow
(cfs)
1973 1973-06-28 3.10 2655
1974 1974-06-18 2.91 1805
1975 1975-07-04 3.19 3005
1976 1976-06-09 2.69 112
1977 1977-05-31 2.67 1075
1978 1978-06-24 3.24 1485
1979 1979 2.85Bm 82.05,Bm
1980 1980-06-10 2.95 1125
1981 1981-06-09 3.03 1205
1982 1982-06-28 2.89 1005
1983 1983-07-30 3.83 1645
1984 1984-06-30 3.63 2685
1985 1985-06-08 3.33 1825
1986 1986-06-04 3.29 1845
1987 1987-06-07 3.29 1805
1988 1988-06-05 2.86 98.05
1989 1989-07-13 2.61 62.05
1990 1990-06-06 2.95 1035
1991 1991-06-15 2.83 92.05
1992 1992-07-08 2.67 72.05
1993 1993-06-29 2.92 1085
1994 1994-05-31 2.66 61.05
1995 1995-06-17 3.24 1505
1996 1996-06-21 2.97 1165
1997 1997-06-19 3.09 1255
1998 1998-06-30 2.65 69.05
1999 1999-06-23 2.98 1185
2000 2000-05-29 3.23 1665
2001 2001-06-25 2.68 73.05
2002 2002-05-31 2.48 50.05
2003 2003-05-29 3.15 1505
2004 2004-06-07 2.67 72.05
2005 2005-05-22 2.82 90.05
2006 2006-06-06 2.90 1035
2007 2007-07-27 2.76 82.05
2008 2008-06-29 3.35 1925
2009 2009-06-26 3.10 1405
2010 2010-06-06 3.59 2655
2011 2011-07-07 3.67 2785
2012 2012-05-22 2.72 76.05
2013 2013-06-11 3.11 1425
2014 2014-05-29 3.11 1325
2015 2015-06-17 3.20 1555
2016 2016-06-05 3.44 2135
2017 2017-06-22 3.18 1425
2018 2018-05-25 2.63 52.75
2019 2019-06-30 3.79 2745
2020 2020-06-01 2.99 1112,5
?
  Peak Gage-Height Qualification Codes.
?
  Peak Streamflow Qualification Codes.